createdAt,value
2018-09-27T00:00:28.505Z,8.90
2018-09-27T00:02:57.138Z,8.90
2018-09-27T00:05:25.804Z,8.90
2018-09-27T00:07:54.477Z,9.00
2018-09-27T00:10:23.146Z,8.90
2018-09-27T00:12:51.647Z,9.00
2018-09-27T00:15:20.246Z,9.00
2018-09-27T00:17:48.851Z,9.10
2018-09-27T00:20:17.368Z,9.00
2018-09-27T00:22:45.913Z,9.00
2018-09-27T00:25:14.418Z,9.00
2018-09-27T00:27:42.908Z,9.00
2018-09-27T00:30:11.412Z,8.90
2018-09-27T00:32:40.087Z,9.00
2018-09-27T00:35:08.668Z,9.00
2018-09-27T00:37:37.394Z,9.00
2018-09-27T00:40:05.969Z,9.00
2018-09-27T00:42:34.767Z,8.90
2018-09-27T00:45:03.346Z,8.90
2018-09-27T00:47:31.888Z,8.80
2018-09-27T00:50:00.398Z,8.70
2018-09-27T00:52:29.034Z,8.70
2018-09-27T00:54:57.624Z,8.70
2018-09-27T00:57:26.080Z,8.70
2018-09-27T00:59:54.531Z,8.70
2018-09-27T01:02:23.156Z,8.80
2018-09-27T01:04:51.801Z,8.90
2018-09-27T01:07:20.355Z,8.80
2018-09-27T01:09:48.971Z,8.80
2018-09-27T01:12:17.557Z,8.70
2018-09-27T01:14:46.201Z,8.70
2018-09-27T01:17:14.779Z,8.70
2018-09-27T01:19:43.402Z,8.70
2018-09-27T01:22:12.028Z,8.60
2018-09-27T01:24:40.550Z,8.60
2018-09-27T01:27:09.077Z,8.60
2018-09-27T01:29:37.661Z,8.60
2018-09-27T01:32:06.257Z,8.60
2018-09-27T01:34:34.765Z,8.60
2018-09-27T01:37:03.219Z,8.60
2018-09-27T01:39:31.827Z,8.60
2018-09-27T01:42:00.415Z,8.60
2018-09-27T01:44:29.199Z,8.60
2018-09-27T01:46:57.831Z,8.50
2018-09-27T01:49:26.288Z,8.60
2018-09-27T01:51:54.792Z,8.60
2018-09-27T01:54:23.297Z,8.60
2018-09-27T01:56:51.744Z,8.60
2018-09-27T01:59:20.283Z,8.70
2018-09-27T02:01:48.852Z,8.60
2018-09-27T02:04:17.578Z,8.60
2018-09-27T02:06:46.063Z,8.60
2018-09-27T02:09:14.573Z,8.60
2018-09-27T02:11:43.173Z,8.60
2018-09-27T02:14:11.668Z,8.70
2018-09-27T02:16:40.316Z,8.50
2018-09-27T02:19:09.023Z,8.40
2018-09-27T02:21:37.655Z,8.50
2018-09-27T02:24:06.249Z,8.50
2018-09-27T02:26:34.875Z,8.60
2018-09-27T02:29:03.584Z,8.60
2018-09-27T02:31:32.146Z,8.60
2018-09-27T02:34:00.891Z,8.60
2018-09-27T02:36:29.465Z,8.50
2018-09-27T02:38:58.002Z,8.50
2018-09-27T02:41:26.604Z,8.50
2018-09-27T02:43:55.221Z,8.50
2018-09-27T02:46:23.838Z,8.50
2018-09-27T02:48:52.344Z,8.50
2018-09-27T02:51:20.918Z,8.40
2018-09-27T02:53:49.422Z,8.40
2018-09-27T02:56:18.135Z,8.50
2018-09-27T02:58:46.678Z,8.40
2018-09-27T03:01:15.337Z,8.40
2018-09-27T03:03:43.921Z,8.40
2018-09-27T03:06:12.589Z,8.40
2018-09-27T03:08:41.196Z,8.50
2018-09-27T03:11:09.624Z,8.50
2018-09-27T03:13:38.255Z,8.50
2018-09-27T03:16:06.849Z,8.40
2018-09-27T03:18:35.523Z,8.40
2018-09-27T03:21:04.148Z,8.40
2018-09-27T03:23:32.774Z,8.50
2018-09-27T03:26:01.377Z,8.50
2018-09-27T03:28:30.034Z,8.50
2018-09-27T03:30:58.763Z,8.40
2018-09-27T03:33:27.396Z,8.40
2018-09-27T03:35:56.030Z,8.40
2018-09-27T03:38:24.665Z,8.40
2018-09-27T03:40:53.341Z,8.40
2018-09-27T03:43:21.954Z,8.40
2018-09-27T03:45:50.510Z,8.40
2018-09-27T03:48:19.056Z,8.40
2018-09-27T03:50:47.853Z,8.40
2018-09-27T03:53:16.549Z,8.40
2018-09-27T03:55:45.173Z,8.40
2018-09-27T03:58:13.812Z,8.40
2018-09-27T04:00:42.384Z,8.40
2018-09-27T04:03:11.077Z,8.30
2018-09-27T04:05:39.792Z,8.30
2018-09-27T04:08:08.291Z,8.30
2018-09-27T04:10:37.003Z,8.30
2018-09-27T04:13:05.526Z,8.20
2018-09-27T04:15:34.253Z,8.30
2018-09-27T04:18:02.788Z,8.30
2018-09-27T04:20:35.183Z,8.20
2018-09-27T04:23:03.878Z,8.20
2018-09-27T04:25:32.489Z,8.20
2018-09-27T04:28:01.140Z,8.20
2018-09-27T04:30:29.727Z,8.20
2018-09-27T04:32:58.294Z,8.10
2018-09-27T04:35:26.881Z,8.20
2018-09-27T04:37:55.384Z,8.10
2018-09-27T04:40:23.952Z,8.10
2018-09-27T04:42:52.545Z,8.10
2018-09-27T04:45:21.194Z,8.10
2018-09-27T04:47:49.771Z,8.10
2018-09-27T04:50:18.385Z,8.10
2018-09-27T04:52:46.837Z,8.10
2018-09-27T04:55:15.457Z,8.10
2018-09-27T04:57:44.106Z,8.10
2018-09-27T05:00:12.710Z,8.10
2018-09-27T05:02:41.503Z,8.10
2018-09-27T05:05:10.086Z,8.10
2018-09-27T05:07:38.560Z,8.10
2018-09-27T05:10:07.772Z,8.10
2018-09-27T05:12:36.628Z,8.10
2018-09-27T05:15:05.662Z,8.10
2018-09-27T05:17:34.474Z,8.10
2018-09-27T05:20:03.625Z,8.00
2018-09-27T05:22:32.289Z,8.10
2018-09-27T05:25:00.861Z,8.10
2018-09-27T05:27:29.486Z,8.10
2018-09-27T05:29:58.087Z,8.10
2018-09-27T05:32:26.733Z,8.10
2018-09-27T05:34:55.473Z,8.10
2018-09-27T05:37:24.217Z,8.10
2018-09-27T05:39:52.853Z,8.10
2018-09-27T05:42:21.682Z,8.20
2018-09-27T05:44:50.136Z,8.10
2018-09-27T05:47:18.799Z,8.20
2018-09-27T05:49:47.509Z,8.10
2018-09-27T05:52:16.081Z,8.20
2018-09-27T05:54:44.736Z,8.20
2018-09-27T05:57:13.961Z,8.20
2018-09-27T05:59:42.586Z,8.20
2018-09-27T06:02:11.611Z,8.30
2018-09-27T06:04:40.234Z,8.30
2018-09-27T06:07:08.758Z,8.40
2018-09-27T06:09:37.258Z,8.40
2018-09-27T06:12:06.128Z,8.40
2018-09-27T06:14:35.017Z,8.50
2018-09-27T06:17:03.813Z,8.60
2018-09-27T06:19:32.480Z,8.60
2018-09-27T06:22:01.123Z,8.70
2018-09-27T06:24:30.016Z,8.70
2018-09-27T06:26:58.737Z,8.80
2018-09-27T06:29:27.536Z,8.80
2018-09-27T06:31:56.444Z,8.90
2018-09-27T06:34:25.451Z,8.90
2018-09-27T06:36:53.960Z,9.00
2018-09-27T06:39:22.615Z,9.00
2018-09-27T06:41:51.352Z,9.10
2018-09-27T06:44:20.294Z,9.20
2018-09-27T06:46:49.016Z,9.20
2018-09-27T06:49:17.905Z,9.30
2018-09-27T06:51:46.450Z,9.40
2018-09-27T06:54:14.904Z,9.40
2018-09-27T06:56:43.898Z,9.50
2018-09-27T06:59:12.595Z,9.60
2018-09-27T07:01:41.344Z,9.70
2018-09-27T07:04:10.100Z,9.80
2018-09-27T07:06:39.380Z,9.90
2018-09-27T07:09:11.035Z,10.60
2018-09-27T07:11:40.227Z,12.40
2018-09-27T07:16:50.085Z,14.70
2018-09-27T07:19:18.834Z,15.40
2018-09-27T07:21:47.763Z,15.80
2018-09-27T07:24:16.304Z,17.00
2018-09-27T07:26:45.220Z,17.30
2018-09-27T07:29:14.139Z,16.80
2018-09-27T07:31:43.180Z,17.30
2018-09-27T07:34:11.960Z,18.00
2018-09-27T07:36:40.618Z,18.00
2018-09-27T07:39:10.857Z,18.10
2018-09-27T07:41:39.725Z,18.20
2018-09-27T07:44:08.599Z,18.70
2018-09-27T07:46:37.592Z,19.10
2018-09-27T07:49:06.448Z,19.40
2018-09-27T07:51:35.371Z,19.40
2018-09-27T07:54:04.077Z,20.50
2018-09-27T07:56:32.831Z,20.60
2018-09-27T07:59:02.008Z,21.30
2018-09-27T08:01:32.589Z,20.40
2018-09-27T08:04:01.944Z,20.00
2018-09-27T08:06:31.032Z,20.60
2018-09-27T08:09:00.186Z,21.10
2018-09-27T08:11:28.706Z,21.40
2018-09-27T08:13:57.276Z,21.00
2018-09-27T08:16:26.283Z,21.40
2018-09-27T08:18:55.084Z,23.30
2018-09-27T08:21:24.159Z,23.40
2018-09-27T08:23:52.893Z,23.60
2018-09-27T08:26:21.937Z,23.70
2018-09-27T08:28:50.886Z,24.50
2018-09-27T08:31:19.648Z,24.70
2018-09-27T08:33:48.612Z,24.80
2018-09-27T08:36:17.536Z,24.80
2018-09-27T08:38:46.431Z,24.20
2018-09-27T08:41:15.251Z,24.70
2018-09-27T08:43:44.016Z,24.20
2018-09-27T08:46:12.621Z,24.00
2018-09-27T08:48:41.255Z,24.10
2018-09-27T08:51:09.914Z,23.80
2018-09-27T08:53:39.039Z,24.90
2018-09-27T08:56:07.952Z,25.60
2018-09-27T08:58:36.500Z,26.40
2018-09-27T09:01:05.221Z,26.00
2018-09-27T09:03:34.024Z,25.00
2018-09-27T09:06:02.536Z,25.40
2018-09-27T09:08:31.147Z,26.00
2018-09-27T09:10:59.924Z,26.20
2018-09-27T09:13:28.566Z,26.50
2018-09-27T09:15:57.236Z,26.20
2018-09-27T09:18:25.785Z,26.80
2018-09-27T09:20:54.561Z,26.70
2018-09-27T09:23:23.181Z,27.50
2018-09-27T09:25:58.668Z,27.30
2018-09-27T09:28:27.367Z,28.10
2018-09-27T09:30:56.241Z,27.50
2018-09-27T09:33:25.163Z,27.90
2018-09-27T09:35:54.524Z,27.30
2018-09-27T09:38:23.057Z,26.00
2018-09-27T09:40:51.880Z,25.30
2018-09-27T09:43:20.413Z,24.60
2018-09-27T09:45:49.047Z,23.50
2018-09-27T09:48:17.710Z,22.60
2018-09-27T09:50:46.256Z,22.10
2018-09-27T09:53:15.009Z,22.30
2018-09-27T09:55:43.557Z,22.20
2018-09-27T09:58:12.143Z,21.50
2018-09-27T10:00:40.818Z,21.10
2018-09-27T10:03:09.672Z,21.20
2018-09-27T10:05:38.866Z,20.60
2018-09-27T10:08:07.482Z,20.70
2018-09-27T10:10:35.901Z,20.90
2018-09-27T10:13:04.488Z,20.70
2018-09-27T10:15:33.766Z,20.50
2018-09-27T10:18:02.277Z,20.60
2018-09-27T10:20:30.825Z,20.70
2018-09-27T10:22:59.289Z,20.60
2018-09-27T10:25:27.839Z,20.60
2018-09-27T10:27:56.468Z,20.40
2018-09-27T10:30:25.224Z,20.70
2018-09-27T10:32:53.756Z,20.70
2018-09-27T10:35:23.153Z,20.70
2018-09-27T10:37:51.658Z,20.60
2018-09-27T10:40:20.060Z,20.60
2018-09-27T10:42:48.688Z,20.30
2018-09-27T10:45:17.333Z,20.10
2018-09-27T10:47:45.943Z,19.90
2018-09-27T10:50:14.594Z,19.80
2018-09-27T10:52:43.036Z,19.90
2018-09-27T10:55:11.466Z,20.00
2018-09-27T10:57:39.928Z,19.80
2018-09-27T11:00:08.501Z,19.90
2018-09-27T11:02:37.107Z,20.00
2018-09-27T11:05:05.935Z,20.00
2018-09-27T11:07:34.611Z,19.80
2018-09-27T11:10:03.246Z,20.00
2018-09-27T11:12:31.961Z,20.00
2018-09-27T11:15:00.937Z,19.80
2018-09-27T11:17:29.696Z,20.00
2018-09-27T11:19:58.488Z,19.90
2018-09-27T11:22:27.564Z,20.00
2018-09-27T11:24:56.362Z,20.00
2018-09-27T11:27:25.141Z,20.10
2018-09-27T11:29:59.188Z,20.20
2018-09-27T11:32:31.203Z,20.20
2018-09-27T11:35:00.279Z,20.30
2018-09-27T11:37:29.396Z,20.30
2018-09-27T11:39:58.369Z,20.30
2018-09-27T11:42:27.196Z,20.30
2018-09-27T11:44:55.840Z,20.30
2018-09-27T11:47:24.616Z,20.60
2018-09-27T11:49:53.379Z,20.60
2018-09-27T11:52:21.864Z,20.50
2018-09-27T11:54:50.634Z,20.60
2018-09-27T11:57:19.158Z,20.60
2018-09-27T11:59:47.606Z,20.50
2018-09-27T12:02:16.448Z,20.60
2018-09-27T12:04:45.019Z,20.60
2018-09-27T12:07:13.712Z,20.90
2018-09-27T12:09:42.315Z,20.90
2018-09-27T12:12:10.889Z,20.80
2018-09-27T12:14:40.168Z,20.90
2018-09-27T12:17:08.804Z,21.10
2018-09-27T12:19:37.904Z,20.80
2018-09-27T12:22:06.670Z,20.70
2018-09-27T12:24:35.146Z,20.80
2018-09-27T12:27:03.563Z,20.90
2018-09-27T12:29:32.004Z,20.90
2018-09-27T12:32:00.692Z,21.10
2018-09-27T12:34:29.136Z,21.00
2018-09-27T12:36:57.610Z,21.10
2018-09-27T12:39:28.905Z,21.10
2018-09-27T12:41:57.657Z,21.10
2018-09-27T12:44:26.749Z,21.20
2018-09-27T12:46:55.333Z,21.10
2018-09-27T12:49:23.844Z,21.10
2018-09-27T12:51:52.479Z,21.30
2018-09-27T12:54:21.355Z,21.50
2018-09-27T12:56:49.817Z,21.40
2018-09-27T12:59:18.512Z,21.30
2018-09-27T13:01:47.010Z,21.30
2018-09-27T13:04:15.713Z,21.50
2018-09-27T13:06:44.539Z,21.60
2018-09-27T13:09:13.157Z,21.40
2018-09-27T13:11:41.693Z,21.50
2018-09-27T13:14:10.095Z,21.70
2018-09-27T13:16:38.552Z,21.70
2018-09-27T13:19:07.045Z,21.90
2018-09-27T13:21:35.806Z,21.90
2018-09-27T13:24:04.277Z,21.70
2018-09-27T13:26:32.895Z,21.60
2018-09-27T13:29:01.478Z,21.80
2018-09-27T13:31:29.885Z,21.90
2018-09-27T13:33:58.711Z,22.00
2018-09-27T13:36:27.598Z,21.90
2018-09-27T13:38:56.092Z,21.80
2018-09-27T13:41:24.688Z,21.70
2018-09-27T13:43:53.142Z,21.80
2018-09-27T13:46:22.296Z,21.80
2018-09-27T13:48:50.917Z,21.70
2018-09-27T13:51:19.407Z,21.80
2018-09-27T13:53:48.022Z,21.70
2018-09-27T13:56:16.677Z,21.70
2018-09-27T13:58:45.171Z,21.90
2018-09-27T14:01:13.710Z,21.90
2018-09-27T14:03:42.561Z,21.80
2018-09-27T14:06:11.280Z,21.80
2018-09-27T14:08:40.070Z,21.80
2018-09-27T14:11:08.805Z,21.90
2018-09-27T14:13:37.245Z,21.80
2018-09-27T14:16:05.824Z,21.90
2018-09-27T14:18:34.600Z,21.90
2018-09-27T14:21:03.193Z,21.90
2018-09-27T14:23:32.088Z,22.00
2018-09-27T14:26:00.600Z,22.00
2018-09-27T14:28:29.356Z,21.90
2018-09-27T14:30:57.954Z,21.80
2018-09-27T14:33:26.442Z,21.80
2018-09-27T14:35:55.296Z,21.80
2018-09-27T14:38:23.952Z,21.90
2018-09-27T14:40:52.374Z,21.90
2018-09-27T14:43:21.368Z,21.90
2018-09-27T14:45:50.282Z,21.80
2018-09-27T14:48:18.895Z,21.90
2018-09-27T14:50:47.331Z,22.00
2018-09-27T14:53:15.891Z,21.90
2018-09-27T14:55:44.328Z,21.90
2018-09-27T14:58:12.928Z,21.80
2018-09-27T15:00:41.493Z,21.70
2018-09-27T15:03:10.012Z,21.70
2018-09-27T15:05:38.625Z,21.70
2018-09-27T15:08:07.049Z,21.70
2018-09-27T15:10:35.864Z,21.70
2018-09-27T15:13:04.348Z,21.70
2018-09-27T15:15:32.830Z,21.70
2018-09-27T15:18:01.475Z,21.60
2018-09-27T15:20:29.852Z,21.60
2018-09-27T15:22:58.313Z,21.40
2018-09-27T15:25:26.753Z,21.40
2018-09-27T15:27:55.355Z,21.40
2018-09-27T15:30:23.787Z,21.30
2018-09-27T15:32:52.308Z,21.30
2018-09-27T15:35:20.897Z,21.30
2018-09-27T15:37:49.613Z,21.20
2018-09-27T15:40:18.171Z,21.20
2018-09-27T15:42:46.708Z,21.20
2018-09-27T15:45:15.155Z,21.10
2018-09-27T15:47:43.680Z,21.10
2018-09-27T15:50:12.189Z,21.10
2018-09-27T15:52:40.753Z,21.10
2018-09-27T15:55:09.323Z,21.00
2018-09-27T15:57:37.777Z,20.90
2018-09-27T16:00:06.747Z,20.80
2018-09-27T16:02:35.228Z,20.80
2018-09-27T16:05:03.725Z,20.80
2018-09-27T16:07:32.233Z,20.70
2018-09-27T16:10:00.774Z,20.70
2018-09-27T16:12:29.468Z,20.60
2018-09-27T16:14:58.077Z,20.60
2018-09-27T16:17:26.750Z,20.50
2018-09-27T16:19:55.197Z,20.40
2018-09-27T16:22:23.761Z,20.40
2018-09-27T16:24:52.468Z,20.40
2018-09-27T16:27:20.964Z,20.30
2018-09-27T16:29:49.553Z,20.10
2018-09-27T16:32:18.085Z,20.00
2018-09-27T16:34:46.584Z,19.80
2018-09-27T16:37:15.299Z,19.60
2018-09-27T16:39:43.804Z,19.60
2018-09-27T16:42:12.262Z,19.40
2018-09-27T16:44:40.696Z,19.30
2018-09-27T16:47:09.165Z,19.10
2018-09-27T16:49:37.756Z,19.00
2018-09-27T16:52:06.306Z,18.80
2018-09-27T16:54:34.971Z,18.70
2018-09-27T16:57:03.613Z,18.50
2018-09-27T16:59:32.105Z,18.40
2018-09-27T17:02:00.585Z,18.20
2018-09-27T17:04:29.075Z,18.10
2018-09-27T17:06:57.710Z,18.00
2018-09-27T17:09:26.268Z,17.90
2018-09-27T17:11:54.743Z,17.70
2018-09-27T17:14:23.297Z,17.60
2018-09-27T17:16:51.848Z,17.40
2018-09-27T17:19:20.373Z,17.30
2018-09-27T17:21:48.849Z,17.00
2018-09-27T17:24:17.447Z,16.90
2018-09-27T17:26:46.061Z,16.80
2018-09-27T17:29:14.689Z,16.60
2018-09-27T17:31:43.520Z,16.50
2018-09-27T17:34:12.280Z,16.40
2018-09-27T17:36:41.553Z,16.30
2018-09-27T17:39:10.335Z,16.20
2018-09-27T17:41:38.829Z,16.10
2018-09-27T17:44:07.957Z,16.00
2018-09-27T17:46:36.547Z,15.90
2018-09-27T17:49:04.972Z,15.80
2018-09-27T17:51:33.464Z,15.70
2018-09-27T17:54:01.947Z,15.60
2018-09-27T17:56:30.856Z,15.50
2018-09-27T17:58:59.809Z,15.50
2018-09-27T18:01:28.438Z,15.40
2018-09-27T18:03:57.022Z,15.30
2018-09-27T18:06:25.593Z,15.20
2018-09-27T18:08:54.392Z,15.10
2018-09-27T18:11:23.090Z,15.00
2018-09-27T18:13:51.554Z,14.90
2018-09-27T18:16:21.042Z,14.90
2018-09-27T18:18:49.598Z,14.80
2018-09-27T18:21:18.313Z,14.70
2018-09-27T18:23:46.809Z,14.60
2018-09-27T18:26:15.460Z,14.60
2018-09-27T18:28:44.057Z,14.50
2018-09-27T18:31:12.737Z,14.50
2018-09-27T18:33:41.229Z,14.40
2018-09-27T18:36:09.832Z,14.30
2018-09-27T18:38:38.385Z,14.30
2018-09-27T18:41:06.939Z,14.20
2018-09-27T18:43:35.543Z,14.10
2018-09-27T18:46:04.164Z,14.00
2018-09-27T18:48:32.682Z,14.00
2018-09-27T18:51:01.204Z,13.90
2018-09-27T18:53:29.813Z,13.90
2018-09-27T18:55:58.329Z,13.80
2018-09-27T18:58:26.892Z,13.80
2018-09-27T19:00:55.322Z,13.80
2018-09-27T19:03:23.856Z,13.70
2018-09-27T19:05:52.421Z,13.60
2018-09-27T19:08:21.069Z,13.60
2018-09-27T19:10:49.662Z,13.50
2018-09-27T19:13:18.247Z,13.50
2018-09-27T19:15:46.820Z,13.40
2018-09-27T19:18:15.395Z,13.40
2018-09-27T19:20:44.004Z,13.40
2018-09-27T19:23:12.512Z,13.30
2018-09-27T19:25:41.116Z,13.30
2018-09-27T19:28:09.624Z,13.20
2018-09-27T19:30:38.205Z,13.20
2018-09-27T19:33:06.711Z,13.10
2018-09-27T19:35:35.286Z,13.10
2018-09-27T19:38:04.053Z,13.10
2018-09-27T19:40:32.548Z,13.10
2018-09-27T19:43:01.104Z,13.00
2018-09-27T19:45:29.774Z,13.00
2018-09-27T19:47:58.330Z,12.90
2018-09-27T19:50:26.911Z,12.80
2018-09-27T19:52:55.547Z,12.80
2018-09-27T19:55:24.121Z,12.80
2018-09-27T19:57:52.731Z,12.70
2018-09-27T20:00:21.425Z,12.70
2018-09-27T20:02:50.133Z,12.60
2018-09-27T20:05:18.765Z,12.60
2018-09-27T20:07:47.289Z,12.50
2018-09-27T20:10:15.987Z,12.50
2018-09-27T20:12:44.768Z,12.40
2018-09-27T20:15:13.304Z,12.40
2018-09-27T20:17:41.881Z,12.40
2018-09-27T20:20:10.635Z,12.40
2018-09-27T20:22:39.217Z,12.30
2018-09-27T20:25:07.960Z,12.20
2018-09-27T20:27:36.621Z,12.20
2018-09-27T20:30:05.857Z,12.00
2018-09-27T20:32:34.553Z,12.00
2018-09-27T20:35:03.238Z,11.90
2018-09-27T20:37:31.802Z,11.90
2018-09-27T20:40:00.436Z,11.90
2018-09-27T20:42:29.157Z,11.90
2018-09-27T20:44:57.849Z,11.90
2018-09-27T20:47:26.563Z,11.80
2018-09-27T20:49:55.399Z,11.80
2018-09-27T20:52:24.237Z,11.80
2018-09-27T20:54:52.897Z,11.80
2018-09-27T20:57:21.602Z,11.80
2018-09-27T20:59:50.262Z,11.80
2018-09-27T21:02:19.037Z,11.80
2018-09-27T21:04:47.733Z,11.80
2018-09-27T21:07:16.429Z,11.70
2018-09-27T21:09:45.140Z,11.60
2018-09-27T21:12:13.719Z,11.60
2018-09-27T21:14:42.400Z,11.60
2018-09-27T21:17:11.050Z,11.60
2018-09-27T21:19:39.746Z,11.50
2018-09-27T21:22:08.441Z,11.50
2018-09-27T21:24:37.107Z,11.50
2018-09-27T21:27:05.792Z,11.60
2018-09-27T21:29:34.466Z,11.60
2018-09-27T21:32:03.216Z,11.60
2018-09-27T21:34:31.918Z,11.50
2018-09-27T21:37:00.573Z,11.40
2018-09-27T21:39:29.269Z,11.40
2018-09-27T21:41:57.795Z,11.40
2018-09-27T21:44:26.529Z,11.20
2018-09-27T21:46:55.377Z,11.20
2018-09-27T21:49:24.152Z,11.10
2018-09-27T21:51:52.829Z,11.10
2018-09-27T21:54:21.684Z,11.00
2018-09-27T21:56:50.422Z,10.90
2018-09-27T21:59:19.150Z,11.00
2018-09-27T22:01:47.730Z,10.90
2018-09-27T22:04:16.512Z,11.00
2018-09-27T22:06:46.561Z,10.90
2018-09-27T22:09:15.261Z,10.90
2018-09-27T22:11:43.929Z,10.90
2018-09-27T22:14:12.505Z,10.90
2018-09-27T22:16:40.988Z,10.90
2018-09-27T22:19:09.736Z,10.90
2018-09-27T22:21:38.539Z,10.80
2018-09-27T22:24:07.205Z,10.70
2018-09-27T22:26:35.983Z,10.70
2018-09-27T22:29:04.705Z,10.70
2018-09-27T22:31:33.538Z,10.70
2018-09-27T22:34:02.308Z,10.70
2018-09-27T22:36:33.769Z,10.70
2018-09-27T22:39:02.412Z,10.60
2018-09-27T22:41:31.134Z,10.60
2018-09-27T22:43:59.744Z,10.60
2018-09-27T22:46:28.365Z,10.60
2018-09-27T22:48:57.101Z,10.50
2018-09-27T22:51:25.996Z,10.40
2018-09-27T22:53:54.651Z,10.40
2018-09-27T22:56:23.266Z,10.40
2018-09-27T22:58:51.904Z,10.30
2018-09-27T23:01:20.598Z,10.30
2018-09-27T23:03:49.234Z,10.20
2018-09-27T23:06:17.857Z,10.10
2018-09-27T23:08:46.569Z,10.10
2018-09-27T23:11:15.281Z,10.00
2018-09-27T23:13:44.174Z,10.00
2018-09-27T23:16:12.871Z,9.90
2018-09-27T23:18:41.566Z,10.00
2018-09-27T23:21:10.281Z,10.00
2018-09-27T23:23:39.098Z,10.00
2018-09-27T23:26:07.912Z,9.90
2018-09-27T23:28:36.547Z,9.80
2018-09-27T23:31:05.201Z,9.90
2018-09-27T23:33:33.878Z,9.90
2018-09-27T23:36:02.552Z,9.80
2018-09-27T23:38:31.198Z,9.90
2018-09-27T23:40:59.763Z,9.90
2018-09-27T23:43:28.337Z,9.90
2018-09-27T23:45:57.034Z,9.90
2018-09-27T23:48:25.888Z,9.80
2018-09-27T23:50:54.545Z,9.70
2018-09-27T23:53:23.300Z,9.60
2018-09-27T23:55:52.149Z,9.60
2018-09-27T23:58:20.810Z,9.60
